createdAt,value
2023-09-08T00:02:28.852Z,94189.94
2023-09-08T00:04:55.791Z,94196.09
2023-09-08T00:07:22.392Z,94179.66
2023-09-08T00:09:48.949Z,94178.41
2023-09-08T00:12:15.502Z,94188.63
2023-09-08T00:14:42.054Z,94184.41
2023-09-08T00:17:08.691Z,94192.59
2023-09-08T00:19:35.305Z,94178.56
2023-09-08T00:22:01.913Z,94198.84
2023-09-08T00:24:28.379Z,94174.59
2023-09-08T00:26:54.994Z,94184.69
2023-09-08T00:29:21.451Z,94163.78
2023-09-08T00:31:47.926Z,94167.84
2023-09-08T00:34:14.408Z,94184.84
2023-09-08T00:36:40.977Z,94172.84
2023-09-08T00:39:07.405Z,94179.72
2023-09-08T00:41:34.515Z,94174.81
2023-09-08T00:44:01.042Z,94180.50
2023-09-08T00:46:29.503Z,94157.47
2023-09-08T00:48:57.117Z,94165.97
2023-09-08T00:51:23.642Z,94145.03
2023-09-08T00:53:51.138Z,94149.22
2023-09-08T00:56:17.776Z,94149.88
2023-09-08T00:58:44.638Z,94141.84
2023-09-08T01:01:11.155Z,94156.75
2023-09-08T01:03:37.946Z,94163.78
2023-09-08T01:06:05.243Z,94152.66
2023-09-08T01:08:32.136Z,94161.94
2023-09-08T01:10:59.023Z,94165.22
2023-09-08T01:13:25.557Z,94154.78
2023-09-08T01:15:52.064Z,94162.81
2023-09-08T01:18:18.624Z,94152.66
2023-09-08T01:20:57.348Z,94153.28
2023-09-08T01:23:47.123Z,94162.59
2023-09-08T01:26:19.721Z,94157.84
2023-09-08T01:28:50.889Z,94165.94
2023-09-08T01:31:18.495Z,94058.09
2023-09-08T01:33:46.522Z,94154.22
2023-09-08T01:36:14.606Z,94155.09
2023-09-08T01:38:43.305Z,94143.03
2023-09-08T01:41:10.618Z,94143.25
2023-09-08T01:43:37.280Z,94132.59
2023-09-08T01:46:03.970Z,94140.63
2023-09-08T01:53:46.829Z,94137.09
2023-09-08T01:56:13.329Z,94131.09
2023-09-08T01:58:39.832Z,94122.44
2023-09-08T02:01:07.037Z,94135.47
2023-09-08T02:03:34.148Z,94155.63
2023-09-08T02:06:01.038Z,94149.38
2023-09-08T02:08:27.507Z,94142.34
2023-09-08T02:10:53.981Z,94120.22
2023-09-08T02:13:20.484Z,94129.91
2023-09-08T02:15:47.056Z,94134.34
2023-09-08T02:18:14.345Z,94138.09
2023-09-08T02:20:40.949Z,94145.56
2023-09-08T02:23:08.796Z,94147.59
2023-09-08T02:25:35.488Z,94108.97
2023-09-08T02:28:02.267Z,94122.66
2023-09-08T02:30:28.809Z,94123.47
2023-09-08T02:32:56.318Z,94135.56
2023-09-08T02:35:25.658Z,94130.59
2023-09-08T02:37:52.255Z,94129.22
2023-09-08T02:40:20.146Z,94139.25
2023-09-08T02:42:46.673Z,94125.56
2023-09-08T02:45:13.262Z,94112.69
2023-09-08T02:47:39.805Z,94121.91
2023-09-08T02:50:06.588Z,94131.41
2023-09-08T02:52:33.010Z,94128.03
2023-09-08T02:54:59.417Z,94114.75
2023-09-08T02:57:25.861Z,94122.03
2023-09-08T02:59:52.533Z,94110.34
2023-09-08T03:02:19.134Z,94117.59
2023-09-08T03:04:45.707Z,94107.13
2023-09-08T03:07:12.204Z,94110.38
2023-09-08T03:09:39.734Z,94133.66
2023-09-08T03:12:06.314Z,94118.31
2023-09-08T03:14:32.734Z,94105.81
2023-09-08T03:16:59.277Z,94122.78
2023-09-08T03:19:25.724Z,94127.63
2023-09-08T03:21:52.286Z,94110.75
2023-09-08T03:24:18.777Z,94138.38
2023-09-08T03:26:45.329Z,94127.38
2023-09-08T03:29:11.967Z,94132.16
2023-09-08T03:31:38.516Z,94125.31
2023-09-08T03:34:05.208Z,94131.78
2023-09-08T03:36:32.180Z,94094.31
2023-09-08T03:38:59.273Z,94124.38
2023-09-08T03:41:26.341Z,94128.22
2023-09-08T03:43:52.763Z,94096.53
2023-09-08T03:46:19.313Z,94097.31
2023-09-08T03:48:45.891Z,94112.19
2023-09-08T03:51:12.376Z,94125.66
2023-09-08T03:53:39.155Z,94116.25
2023-09-08T03:56:06.004Z,94126.28
2023-09-08T03:58:32.486Z,94125.25
2023-09-08T04:00:59.200Z,94117.78
2023-09-08T04:03:27.104Z,94123.88
2023-09-08T04:05:53.993Z,94137.13
2023-09-08T04:08:20.436Z,94136.16
2023-09-08T04:10:46.898Z,94129.53
2023-09-08T04:13:13.327Z,94132.78
2023-09-08T04:15:39.906Z,94142.25
2023-09-08T04:18:07.451Z,94115.03
2023-09-08T04:20:34.859Z,94152.28
2023-09-08T04:23:01.281Z,94137.63
2023-09-08T04:25:27.761Z,94105.41
2023-09-08T04:27:54.190Z,94126.75
2023-09-08T04:30:20.723Z,94141.59
2023-09-08T04:32:47.305Z,94144.00
2023-09-08T04:35:13.858Z,94128.28
2023-09-08T04:37:41.144Z,94120.25
2023-09-08T04:40:11.009Z,94144.84
2023-09-08T04:42:37.639Z,94127.13
2023-09-08T04:45:04.689Z,94142.47
2023-09-08T04:47:31.493Z,94145.66
2023-09-08T04:49:58.005Z,94139.88
2023-09-08T04:52:24.449Z,94161.00
2023-09-08T04:54:50.856Z,94164.63
2023-09-08T04:57:23.447Z,94156.56
2023-09-08T04:59:51.017Z,94178.31
2023-09-08T05:02:19.324Z,94165.06
2023-09-08T05:04:45.950Z,94102.84
2023-09-08T05:07:14.352Z,94146.53
2023-09-08T05:09:40.986Z,94160.22
2023-09-08T05:12:07.710Z,94163.06
2023-09-08T05:14:34.229Z,94153.78
2023-09-08T05:17:00.754Z,94161.44
2023-09-08T05:19:27.211Z,94156.59
2023-09-08T05:21:56.054Z,94171.09
2023-09-08T05:24:22.872Z,94152.34
2023-09-08T05:26:49.569Z,94156.94
2023-09-08T05:29:16.124Z,94154.03
2023-09-08T05:31:43.026Z,94171.34
2023-09-08T05:34:09.472Z,94181.19
2023-09-08T05:36:39.047Z,94162.78
2023-09-08T05:39:06.431Z,94178.06
2023-09-08T05:41:34.816Z,94162.34
2023-09-08T05:44:01.866Z,94149.00
2023-09-08T05:46:28.498Z,94140.84
2023-09-08T05:48:54.987Z,94148.44
2023-09-08T05:51:21.493Z,94179.94
2023-09-08T05:53:48.584Z,94169.94
2023-09-08T05:56:15.140Z,94160.53
2023-09-08T05:58:41.616Z,94150.44
2023-09-08T06:01:08.512Z,94192.16
2023-09-08T06:03:35.368Z,94174.75
2023-09-08T06:06:01.910Z,94184.69
2023-09-08T06:08:28.345Z,94174.31
2023-09-08T06:10:54.779Z,94175.19
2023-09-08T06:13:22.003Z,94161.34
2023-09-08T06:15:48.507Z,94182.59
2023-09-08T06:18:15.067Z,94168.41
2023-09-08T06:20:46.105Z,94196.19
2023-09-08T06:23:12.587Z,94178.78
2023-09-08T06:25:39.133Z,94160.63
2023-09-08T06:28:05.761Z,94188.66
2023-09-08T06:30:32.335Z,94162.06
2023-09-08T06:33:00.111Z,94182.41
2023-09-08T06:35:27.518Z,94207.91
2023-09-08T06:37:53.986Z,94181.84
2023-09-08T06:40:20.492Z,94180.38
2023-09-08T06:42:47.073Z,94183.94
2023-09-08T06:45:15.115Z,94177.75
2023-09-08T06:47:41.682Z,94171.69
2023-09-08T06:50:08.529Z,94176.53
2023-09-08T06:52:34.970Z,94169.34
2023-09-08T06:55:01.508Z,94193.41
2023-09-08T06:57:28.015Z,94177.78
2023-09-08T06:59:54.453Z,94162.66
2023-09-08T07:02:21.021Z,94160.91
2023-09-08T07:04:48.566Z,94166.47
2023-09-08T07:07:15.209Z,94160.38
2023-09-08T07:09:41.685Z,94159.34
2023-09-08T07:12:08.308Z,94134.50
2023-09-08T07:14:34.758Z,94177.13
2023-09-08T07:17:01.397Z,94145.03
2023-09-08T07:19:28.594Z,94172.47
2023-09-08T07:21:55.375Z,94167.44
2023-09-08T07:24:23.056Z,94166.75
2023-09-08T07:26:51.795Z,94160.75
2023-09-08T07:29:19.690Z,94178.31
2023-09-08T07:31:46.246Z,94162.44
2023-09-08T07:34:12.749Z,94165.16
2023-09-08T07:36:39.659Z,94171.25
2023-09-08T07:39:06.328Z,94186.25
2023-09-08T07:41:32.844Z,94174.25
2023-09-08T07:43:59.456Z,94191.03
2023-09-08T07:46:26.186Z,94192.13
2023-09-08T07:48:53.593Z,94169.31
2023-09-08T07:51:20.176Z,94184.72
2023-09-08T07:53:46.983Z,94158.19
2023-09-08T07:56:13.639Z,94162.59
2023-09-08T07:58:40.906Z,94171.28
2023-09-08T08:01:07.536Z,94162.34
2023-09-08T08:03:36.014Z,94162.69
2023-09-08T08:08:40.151Z,94181.00
2023-09-08T08:11:14.585Z,94181.88
2023-09-08T08:13:41.070Z,94158.56
2023-09-08T08:16:08.661Z,94175.69
2023-09-08T08:18:35.640Z,94170.91
2023-09-08T08:21:04.436Z,94180.28
2023-09-08T08:23:32.081Z,94184.63
2023-09-08T08:25:59.923Z,94180.47
2023-09-08T08:28:26.952Z,94178.34
2023-09-08T08:30:53.580Z,94177.84
2023-09-08T08:33:22.107Z,94178.97
2023-09-08T08:35:52.244Z,94192.88
2023-09-08T08:38:18.969Z,94174.53
2023-09-08T08:40:45.631Z,94180.69
2023-09-08T08:43:12.387Z,94189.22
2023-09-08T08:45:42.913Z,94168.47
2023-09-08T08:48:10.074Z,94181.28
2023-09-08T08:50:38.583Z,94163.16
2023-09-08T08:53:05.441Z,94171.72
2023-09-08T08:55:32.177Z,94165.88
2023-09-08T08:58:06.925Z,94175.00
2023-09-08T09:00:39.741Z,94159.53
2023-09-08T09:03:15.261Z,94167.25
2023-09-08T09:05:46.809Z,94182.22
2023-09-08T09:08:17.932Z,94180.06
2023-09-08T09:10:46.224Z,94155.78
2023-09-08T09:13:12.666Z,94161.69
2023-09-08T09:15:41.520Z,94141.97
2023-09-08T09:18:09.272Z,94155.25
2023-09-08T09:20:37.173Z,94165.91
2023-09-08T09:23:04.547Z,94172.78
2023-09-08T09:25:33.562Z,94153.03
2023-09-08T09:28:02.725Z,94151.91
2023-09-08T09:30:48.720Z,94166.22
2023-09-08T09:33:15.576Z,94150.78
2023-09-08T09:35:47.091Z,94166.59
2023-09-08T09:38:15.463Z,94165.47
2023-09-08T09:40:42.070Z,94156.16
2023-09-08T09:43:09.254Z,94158.88
2023-09-08T09:45:37.391Z,94166.88
2023-09-08T09:48:05.646Z,94158.25
2023-09-08T09:50:41.063Z,94165.56
2023-09-08T09:53:13.887Z,94161.75
2023-09-08T09:55:43.894Z,94151.53
2023-09-08T09:58:13.852Z,94160.06
2023-09-08T10:00:48.618Z,94158.72
2023-09-08T10:03:19.648Z,94140.81
2023-09-08T10:05:49.232Z,94144.94
2023-09-08T10:08:15.872Z,94140.56
2023-09-08T10:10:47.218Z,94144.13
2023-09-08T10:13:16.801Z,94141.53
2023-09-08T10:15:43.570Z,94138.13
2023-09-08T10:18:13.295Z,94140.50
2023-09-08T10:20:41.635Z,94143.09
2023-09-08T10:23:19.891Z,94134.75
2023-09-08T10:25:55.190Z,94146.34
2023-09-08T10:28:28.881Z,94150.69
2023-09-08T10:30:57.002Z,94138.44
2023-09-08T10:33:27.661Z,94133.84
2023-09-08T10:35:56.107Z,94127.91
2023-09-08T10:38:25.550Z,94137.09
2023-09-08T10:41:11.367Z,94125.69
2023-09-08T10:43:38.921Z,94123.22
2023-09-08T10:46:12.779Z,94115.53
2023-09-08T10:48:45.878Z,94133.38
2023-09-08T10:51:16.041Z,94128.00
2023-09-08T10:53:42.578Z,94118.91
2023-09-08T10:56:17.823Z,94131.94
2023-09-08T10:58:51.653Z,94130.78
2023-09-08T11:01:20.467Z,94125.03
2023-09-08T11:03:50.995Z,94128.09
2023-09-08T11:06:23.464Z,94122.34
2023-09-08T11:08:54.483Z,94132.88
2023-09-08T11:11:21.234Z,94126.84
2023-09-08T11:13:49.914Z,94115.81
2023-09-08T11:16:17.033Z,94122.81
2023-09-08T11:18:44.921Z,94114.44
2023-09-08T11:21:12.284Z,94126.38
2023-09-08T11:23:40.162Z,94113.75
2023-09-08T11:26:09.985Z,94102.50
2023-09-08T11:28:37.521Z,94129.53
2023-09-08T11:31:04.749Z,94120.28
2023-09-08T11:33:42.327Z,94110.06
2023-09-08T11:36:20.463Z,94114.53
2023-09-08T11:38:49.269Z,94109.28
2023-09-08T11:41:15.845Z,94116.03
2023-09-08T11:43:42.719Z,94116.63
2023-09-08T11:46:11.805Z,94118.06
2023-09-08T11:48:38.999Z,94114.34
2023-09-08T11:51:08.095Z,94106.50
2023-09-08T11:53:34.784Z,94108.47
2023-09-08T11:56:01.644Z,94120.78
2023-09-08T11:58:28.518Z,94107.19
2023-09-08T12:00:55.152Z,94113.84
2023-09-08T12:03:22.783Z,94104.13
2023-09-08T12:05:53.422Z,94106.72
2023-09-08T12:08:20.298Z,94100.97
2023-09-08T12:10:50.846Z,94103.34
2023-09-08T12:13:24.801Z,94107.59
2023-09-08T12:15:51.491Z,94083.25
2023-09-08T12:18:18.147Z,94093.63
2023-09-08T12:21:06.023Z,94101.66
2023-09-08T12:23:32.540Z,94113.44
2023-09-08T12:25:59.108Z,94105.03
2023-09-08T12:28:31.621Z,94095.25
2023-09-08T12:30:58.136Z,94097.41
2023-09-08T12:33:27.396Z,94110.59
2023-09-08T12:35:54.830Z,94085.59
2023-09-08T12:38:24.492Z,94091.28
2023-09-08T12:40:50.990Z,94105.81
2023-09-08T12:43:26.741Z,94095.06
2023-09-08T12:45:54.988Z,94097.03
2023-09-08T12:48:21.817Z,94089.84
2023-09-08T12:50:49.905Z,94093.34
2023-09-08T12:53:18.866Z,94080.16
2023-09-08T12:55:45.400Z,94091.47
2023-09-08T12:58:11.824Z,94080.97
2023-09-08T13:00:45.268Z,94081.56
2023-09-08T13:03:11.806Z,94076.44
2023-09-08T13:05:39.848Z,94080.16
2023-09-08T13:08:06.921Z,94079.81
2023-09-08T13:10:33.420Z,94076.88
2023-09-08T13:12:59.903Z,94089.84
2023-09-08T13:15:26.402Z,94084.81
2023-09-08T13:17:52.905Z,94082.50
2023-09-08T13:20:21.546Z,94065.84
2023-09-08T13:22:48.416Z,94078.47
2023-09-08T13:25:15.199Z,94065.03
2023-09-08T13:27:42.291Z,94068.50
2023-09-08T13:30:16.210Z,94073.03
2023-09-08T13:32:43.881Z,94055.84
2023-09-08T13:35:16.495Z,94061.63
2023-09-08T13:37:43.608Z,94057.59
2023-09-08T13:40:10.468Z,94052.56
2023-09-08T13:42:37.307Z,94048.63
2023-09-08T13:45:04.770Z,94040.41
2023-09-08T13:47:32.322Z,94033.00
2023-09-08T13:50:01.751Z,94052.50
2023-09-08T13:52:31.973Z,94055.06
2023-09-08T13:57:29.646Z,94042.75
2023-09-08T13:59:57.668Z,94040.66
2023-09-08T14:04:55.766Z,94045.06
2023-09-08T14:07:27.762Z,94034.59
2023-09-08T14:12:34.258Z,94044.47
2023-09-08T14:15:02.620Z,94031.16
2023-09-08T14:17:29.113Z,94043.44
2023-09-08T14:19:55.631Z,94031.50
2023-09-08T14:22:22.124Z,94036.22
2023-09-08T14:24:48.737Z,94033.03
2023-09-08T14:27:15.290Z,94033.69
2023-09-08T14:29:41.725Z,94035.75
2023-09-08T14:32:08.155Z,94028.31
2023-09-08T14:34:41.566Z,94040.06
2023-09-08T14:37:11.059Z,94033.22
2023-09-08T14:39:38.253Z,94027.66
2023-09-08T14:42:06.025Z,94040.78
2023-09-08T14:44:32.521Z,94034.44
2023-09-08T14:46:58.987Z,94037.97
2023-09-08T14:49:25.430Z,94030.38
2023-09-08T14:51:51.899Z,94042.97
2023-09-08T14:54:19.285Z,94037.59
2023-09-08T14:56:45.725Z,94043.84
2023-09-08T14:59:12.159Z,94047.00
2023-09-08T15:01:41.719Z,94041.94
2023-09-08T15:04:08.401Z,94025.78
2023-09-08T15:06:34.976Z,94031.50
2023-09-08T15:09:01.435Z,94041.06
2023-09-08T15:11:28.062Z,94029.13
2023-09-08T15:13:54.652Z,94026.13
2023-09-08T15:16:22.398Z,94042.88
2023-09-08T15:18:49.016Z,94035.91
2023-09-08T15:21:15.592Z,94025.78
2023-09-08T15:23:42.160Z,94024.88
2023-09-08T15:26:08.712Z,94038.22
2023-09-08T15:28:37.324Z,94023.69
2023-09-08T15:31:04.180Z,94026.16
2023-09-08T15:33:30.920Z,94020.31
2023-09-08T15:35:57.646Z,94023.78
2023-09-08T15:38:24.153Z,94024.72
2023-09-08T15:41:09.124Z,94037.41
2023-09-08T15:43:38.524Z,94033.31
2023-09-08T15:46:09.044Z,94042.31
2023-09-08T15:48:35.930Z,94014.75
2023-09-08T15:51:02.545Z,94029.06
2023-09-08T15:53:29.076Z,94020.31
2023-09-08T15:55:56.194Z,94031.75
2023-09-08T15:58:22.833Z,94025.75
2023-09-08T16:00:51.478Z,94024.09
2023-09-08T16:03:18.220Z,94034.31
2023-09-08T16:05:44.801Z,94039.09
2023-09-08T16:08:11.251Z,94027.47
2023-09-08T16:10:37.654Z,94037.59
2023-09-08T16:13:04.482Z,94039.03
2023-09-08T16:15:31.101Z,94028.75
2023-09-08T16:18:00.180Z,94046.34
2023-09-08T16:20:26.754Z,94044.75
2023-09-08T16:22:53.284Z,94036.19
2023-09-08T16:25:19.696Z,94015.91
2023-09-08T16:27:46.583Z,94010.88
2023-09-08T16:30:13.565Z,94034.81
2023-09-08T16:32:41.043Z,94026.28
2023-09-08T16:35:08.208Z,94052.69
2023-09-08T16:37:34.844Z,94025.28
2023-09-08T16:40:01.437Z,94037.00
2023-09-08T16:42:28.070Z,94038.31
2023-09-08T16:44:54.614Z,94038.34
2023-09-08T16:47:21.607Z,94040.50
2023-09-08T16:49:48.138Z,94033.38
2023-09-08T16:52:14.594Z,94033.56
2023-09-08T16:54:41.071Z,94030.00
2023-09-08T16:57:07.601Z,94038.44
2023-09-08T16:59:34.135Z,93994.38
2023-09-08T17:02:00.610Z,94030.94
2023-09-08T17:04:28.103Z,94036.06
2023-09-08T17:06:54.787Z,94044.97
2023-09-08T17:09:21.252Z,94031.88
2023-09-08T17:11:47.816Z,94054.41
2023-09-08T17:14:14.263Z,94041.38
2023-09-08T17:16:40.717Z,94041.53
2023-09-08T17:19:07.257Z,94049.41
2023-09-08T17:21:33.695Z,94039.66
2023-09-08T17:24:00.169Z,94050.91
2023-09-08T17:26:26.673Z,94053.56
2023-09-08T17:28:53.140Z,94060.50
2023-09-08T17:31:19.591Z,94003.41
2023-09-08T17:33:46.113Z,94055.16
2023-09-08T17:36:12.676Z,94045.84
2023-09-08T17:38:39.181Z,94047.06
2023-09-08T17:41:05.689Z,94057.34
2023-09-08T17:43:32.169Z,94064.47
2023-09-08T17:46:04.638Z,94066.78
2023-09-08T17:48:31.806Z,94061.75
2023-09-08T17:50:58.386Z,94066.41
2023-09-08T17:53:24.845Z,94073.41
2023-09-08T17:55:51.281Z,94070.84
2023-09-08T17:58:17.731Z,94063.75
2023-09-08T18:00:44.221Z,94065.69
2023-09-08T18:03:14.504Z,94063.31
2023-09-08T18:05:42.787Z,94037.84
2023-09-08T18:08:09.319Z,94065.25
2023-09-08T18:10:35.836Z,94076.97
2023-09-08T18:13:02.391Z,94080.47
2023-09-08T18:15:28.903Z,94086.84
2023-09-08T18:17:55.367Z,94079.13
2023-09-08T18:20:21.869Z,94073.81
2023-09-08T18:22:48.320Z,94098.56
2023-09-08T18:25:14.825Z,94070.06
2023-09-08T18:27:41.309Z,94079.63
2023-09-08T18:30:08.179Z,94068.72
2023-09-08T18:32:35.017Z,94088.13
2023-09-08T18:35:01.476Z,94079.59
2023-09-08T18:37:27.928Z,94084.91
2023-09-08T18:39:54.556Z,94098.94
2023-09-08T18:42:20.994Z,94092.03
2023-09-08T18:44:47.478Z,94089.59
2023-09-08T18:47:13.927Z,94079.97
2023-09-08T18:49:40.563Z,94108.16
2023-09-08T18:52:07.050Z,94100.13
2023-09-08T18:54:33.646Z,94103.38
2023-09-08T18:57:00.226Z,94108.44
2023-09-08T18:59:26.685Z,94103.38
2023-09-08T19:01:54.617Z,94104.94
2023-09-08T19:04:21.141Z,94095.53
2023-09-08T19:06:47.578Z,94104.00
2023-09-08T19:09:14.025Z,94113.88
2023-09-08T19:11:40.509Z,94094.09
2023-09-08T19:14:10.304Z,94099.94
2023-09-08T19:16:36.849Z,94100.47
2023-09-08T19:19:03.418Z,94090.31
2023-09-08T19:21:29.914Z,94098.81
2023-09-08T19:23:56.375Z,94100.34
2023-09-08T19:26:22.786Z,94098.16
2023-09-08T19:28:53.307Z,94100.75
2023-09-08T19:31:19.921Z,94112.41
2023-09-08T19:33:46.644Z,94095.59
2023-09-08T19:36:13.125Z,94094.47
2023-09-08T19:38:39.608Z,94104.81
2023-09-08T19:41:08.232Z,94103.16
2023-09-08T19:43:35.057Z,94108.44
2023-09-08T19:46:05.585Z,94096.94
2023-09-08T19:48:34.867Z,94100.34
2023-09-08T19:51:08.067Z,94097.66
2023-09-08T19:53:34.865Z,94096.00
2023-09-08T19:56:02.832Z,94096.44
2023-09-08T19:58:29.780Z,94108.63
2023-09-08T20:01:05.051Z,94045.69
2023-09-08T20:03:31.733Z,94094.41
2023-09-08T20:05:58.377Z,94099.16
2023-09-08T20:08:25.815Z,94104.69
2023-09-08T20:10:53.854Z,94097.81
2023-09-08T20:13:21.377Z,94094.00
2023-09-08T20:15:58.156Z,94099.88
2023-09-08T20:18:24.746Z,94097.19
2023-09-08T20:20:55.572Z,94107.34
2023-09-08T20:23:22.674Z,94111.59
2023-09-08T20:25:49.147Z,94109.41
2023-09-08T20:28:15.688Z,94103.47
2023-09-08T20:30:42.393Z,94098.06
2023-09-08T20:33:08.900Z,94115.63
2023-09-08T20:35:36.880Z,94103.84
2023-09-08T20:38:04.621Z,94092.03
2023-09-08T20:40:31.544Z,94099.13
2023-09-08T20:42:58.681Z,94104.66
2023-09-08T20:45:25.244Z,94085.38
2023-09-08T20:47:51.791Z,94106.19
2023-09-08T20:50:18.570Z,94093.56
2023-09-08T20:52:45.058Z,94104.97
2023-09-08T20:55:11.642Z,94013.94
2023-09-08T20:57:38.491Z,94108.44
2023-09-08T21:00:05.433Z,94114.78
2023-09-08T21:02:32.142Z,94106.09
2023-09-08T21:04:58.736Z,94103.06
2023-09-08T21:39:41.024Z,94112.88
2023-09-08T21:42:08.637Z,94116.69
2023-09-08T21:44:35.184Z,94115.44
2023-09-08T21:47:05.388Z,94125.53
2023-09-08T21:49:32.484Z,94122.97
2023-09-08T21:52:02.242Z,94115.72
2023-09-08T21:54:28.811Z,94100.25
2023-09-08T21:56:55.354Z,94117.16
2023-09-08T21:59:21.851Z,94115.78
2023-09-08T22:01:48.374Z,94104.38
2023-09-08T22:04:15.134Z,94111.84
2023-09-08T22:06:43.854Z,94106.22
2023-09-08T22:09:10.559Z,94085.81
2023-09-08T22:11:37.052Z,94108.75
2023-09-08T22:14:03.767Z,94122.97
2023-09-08T22:16:32.376Z,94104.31
2023-09-08T22:18:59.671Z,94079.69
2023-09-08T22:21:26.196Z,94103.63
2023-09-08T22:23:53.872Z,94098.34
2023-09-08T22:26:22.044Z,94109.69
2023-09-08T22:28:48.939Z,94102.69
2023-09-08T22:31:16.123Z,94097.31
2023-09-08T22:33:43.535Z,94096.19
2023-09-08T22:36:10.459Z,94102.59
2023-09-08T22:38:37.688Z,94111.09
2023-09-08T22:41:04.164Z,94086.72
2023-09-08T22:43:30.588Z,94086.81
2023-09-08T22:45:57.074Z,94096.28
2023-09-08T22:48:24.275Z,94092.38
2023-09-08T22:50:51.063Z,94101.31
2023-09-08T22:53:18.380Z,94091.44
2023-09-08T22:55:46.275Z,94086.91
2023-09-08T22:58:16.113Z,94091.03
2023-09-08T23:00:42.848Z,94089.81
2023-09-08T23:03:09.941Z,94088.09
2023-09-08T23:05:36.499Z,94102.88
2023-09-08T23:08:03.244Z,94089.44
2023-09-08T23:10:29.753Z,94065.81
2023-09-08T23:12:56.302Z,94092.91
2023-09-08T23:15:23.500Z,94093.38
2023-09-08T23:17:49.971Z,94085.00
2023-09-08T23:20:16.633Z,94082.34
2023-09-08T23:22:44.826Z,94079.81
2023-09-08T23:25:11.744Z,94091.84
2023-09-08T23:27:38.683Z,94089.91
2023-09-08T23:30:06.205Z,94090.81
2023-09-08T23:32:32.877Z,94086.47
2023-09-08T23:35:00.419Z,94088.09
2023-09-08T23:37:26.970Z,94079.00
2023-09-08T23:39:53.449Z,94080.53
2023-09-08T23:42:20.422Z,94077.31
2023-09-08T23:44:46.923Z,94075.94
2023-09-08T23:47:13.799Z,94084.28
2023-09-08T23:49:40.431Z,94074.44
2023-09-08T23:52:06.875Z,94066.63
2023-09-08T23:54:33.372Z,94069.84
2023-09-08T23:57:00.708Z,94080.03
2023-09-08T23:59:27.383Z,94082.56
